KMHT/MHT METAR and TAF weather

Enter ICAO airport designator
Station Type Date Time Source
KMHT METAR 2020/09/19 17:53 UTC NOAA

KMHT 191753Z 10SM FEW070 16/M04 A3029 RMK AO2 SLP271 T01611044 10161 20078 58009


Station Type Date Time Source
KMHT Decoded METAR 2020/09/19 17:53 UTC NOAA

MANCHESTER AIRPORT, NH, United States (KMHT) 42-56N 071-26W 81M
Sep 19, 2020 - 01:53 PM EDT / 2020.09.19 1753 UTC
Visibility: 10 mile(s):0
Sky conditions: mostly clear
Temperature: 61.0 F (16.1 C)
Dew Point: 24.1 F (-4.4 C)
Relative Humidity: 24%
Pressure (altimeter): 30.29 in. Hg (1025 hPa)
Pressure tendency: 0.03 inches (0.9 hPa) lower than three hours ago
ob: KMHT 191753Z 10SM FEW070 16/M04 A3029 RMK AO2 SLP271 T01611044 10161 20078 58009
cycle: 18

Station Type Date Time Source
KMHT TAF 2020/09/19 18:22 UTC NOAA

TAF KMHT 191720Z 1918/2018 35009KT P6SM FEW070
FM192300 35004KT P6SM SKC
FM201500 01011G18KT P6SM SKC

Example: see airport list